Other Surface Observations
Issued by NWS Missoula, MT

Current Version | Previous Version | Text Only | Print | Product List | Glossary On
Versions: 1 2 3 4 5 6 7 8 9 10 11 12 13 14 15 16 17 18 19 20 21 22 23 24 25 26 27 28 29 30 31 32 33 34 35 36 37 38 39 40 41 42 43 44 45 46 47 48 49 50
000
SXUS55 KMSO 310504
OSOMSO
MONTANA AWOS SUMMARY
NATIONAL WEATHER SERVICE MISSOULA MT
1103 PM MDT SUN AUG 30 2015

Montana AWOS Reports

LAUREL      |K6S8 310455Z AUTO 29017G21KT 25SM 22/07 A2984 RMK AO1 T02170067
TWIN BRIDGES|K7S1 310455Z AUTO 34004KT 25SM 16/00 A3002 RMK AO1 T01610000
ROUNDUP     |KRPX 310455Z AUTO 31020G27KT 25SM 18/03 A2978 RMK AO1 T01830033




USA.gov is the U.S. government's official web portal to all federal, state and local government web resources and services.